Mark Scott

Chefscout - Luton Town
25 Nov 2027
Donnerstag
Verarbeitung

Persönlichkeit

Anpassungsfähigkeit (4) Ehrgeiz (16) Kontroverse (11) Loyalität (5) Druck (7) Professionalität (10) Fairness (6) Temperament (3)

Profil

Trainerstil Demokratisch
Lizenz Kontinentale Pro
Entschlossenheit 4
Menschenführung 6
Motivation 12
Disziplin 8
Arbeitszufriedenheit
42%
Ermüdung
0%
Rolle Chefscout
Gehalt 14.3K p/W
Vertrag 14.03.2028

Leistung

Verhalten Gut
Trainingseffektivität
17%
Spielerentwicklung
60%
Verletzungsprävention
35%
Taktische Umsetzung
35%

Letzte Ereignisse

Spieler begutachtet jetzt
Nahm an einer Scouting-Besprechung teil jetzt
Empfahl ein Transferziel jetzt
Empfahl ein Transferziel jetzt
Empfahl ein Transferziel jetzt
Empfahl ein Transferziel jetzt
Empfahl ein Transferziel jetzt
Nahm an einer Scouting-Besprechung teil jetzt

Aktuell beobachtet

227
Spieler Verein Status Fähigkeit Vertrauen Beobachtet Zuletzt beobachtet Letzte Stimme
Joel Ezra Enyimba Aktiv 90 / 99 40% 7 24.11.2027 -
Fredrik Ardraa Stromsgodset Aktiv 107 / 97 40% 4 24.11.2027 -
Dylan Cabral Arsenal Aktiv 108 / 110 40% 3 24.11.2027 -
Dominik Chong Qui Atlanta United FC Aktiv 93 / 99 40% 6 23.11.2027 -
Alfie James Ventforet Kofu Aktiv 89 / 103 40% 2 23.11.2027 -
Emmanuel Ndubueze Shooting Stars Aktiv 81 / 92 40% 3 23.11.2027 -
Luca Williams-Barnett Tranmere Rovers Aktiv 119 / 127 40% 7 22.11.2027 -
Nicolas Sport Recife Aktiv 112 / 115 40% 2 22.11.2027 -
Kerim Alajbegović Modena Aktiv 131 / 131 40% 1 22.11.2027 -
Joseph Abah Remo Stars Aktiv 88 / 93 40% 3 21.11.2027 -
Tomás Aranda Boca Juniors Aktiv 116 / 123 40% 6 21.11.2027 -
Luighi Palmeiras Aktiv 102 / 116 40% 3 21.11.2027 -
Diogo Guzmán Montevideo City Torque Aktiv 116 / 124 40% 8 20.11.2027 -
Oscar Schwartau Norwich City Aktiv 135 / 135 40% 1 20.11.2027 -
Hervin Goyes Deportivo Pasto Aktiv 115 / 102 40% 5 19.11.2027 -
Chinedu Nwosu Bendel Insurance Aktiv 87 / 82 40% 4 18.11.2027 -
Sebastian Olderheim Stabaek Aktiv 97 / 111 40% 2 18.11.2027 -
Mikkel Hope Haugesund Aktiv 102 / 111 40% 2 17.11.2027 -
Gonçalo Moreira Benfica Aktiv 126 / 123 40% 1 17.11.2027 -
Cooper Sanchez Atlanta United FC Aktiv 96 / 103 40% 2 15.11.2027 -
Archie Gray Derby County Aktiv 155 / 149 40% 2 15.11.2027 -
Hassan Beja AFC Leopards Aktiv 78 / 79 40% 8 13.11.2027 -
Francisco Rincon Llaneros Aktiv 92 / 93 40% 3 13.11.2027 -
Franco Minerva Platense Aktiv 121 / 110 40% 2 11.11.2027 -
Dmitry Pestryakov Dinamo Moscow Aktiv 124 / 130 40% 1 11.11.2027 -
Chaka Coulibaly Remo Stars Aktiv 89 / 104 40% 3 09.11.2027 -
Tiago Parente Benfica Aktiv 111 / 117 40% 1 08.11.2027 -
Brandon Álvarez Penarol Aktiv 86 / 91 40% 3 07.11.2027 -
Seb Ferdinand Chesterfield Aktiv 111 / 126 40% 1 07.11.2027 -
Bassey John Enyimba Aktiv 84 / 86 40% 1 07.11.2027 -
Tiziano Cabrera Central Norte Aktiv 84 / 97 40% 2 03.11.2027 -
Ethan Williams Peterborough United Aktiv 123 / 125 40% 1 03.11.2027 -
Kevin Angulo America de Cali Aktiv 102 / 123 40% 2 01.11.2027 -
Juan Román Gimenez Estudiantes Aktiv 104 / 97 40% 2 31.10.2027 -
Ruben Ramos LA Galaxy Aktiv 95 / 99 40% 2 31.10.2027 -
Andy Rojas New York Red Bulls Aktiv 105 / 98 40% 2 30.10.2027 -
Ethan Nwaneri Arsenal Aktiv 145 / 165 40% 1 30.10.2027 -
Caleb Yirenkyi Coventry City Aktiv 134 / 150 40% 5 29.10.2027 -
Honest Ahanor Atalanta Aktiv 135 / 138 40% 4 29.10.2027 -
Matías Canedo Rampla Juniors Aktiv 86 / 90 40% 2 27.10.2027 -
Luis Vidal Deportivo Pereira Aktiv 82 / 104 40% 3 26.10.2027 -
Ben Gannon Doak Bournemouth Aktiv 150 / 154 40% 2 25.10.2027 -
Harbor Miller LA Galaxy Aktiv 103 / 96 40% 5 24.10.2027 -
Daniel Ferraresi Llaneros Aktiv 88 / 82 40% 2 24.10.2027 -
Chimobi Igwilo Rangers International Aktiv 84 / 101 40% 3 22.10.2027 -
Micah Burton Austin FC Aktiv 88 / 93 40% 1 22.10.2027 -
Zannetos Savva Albirex Niigata Aktiv 82 / 93 40% 1 20.10.2027 -
Ronan Kpakio Cardiff City Aktiv 116 / 125 40% 1 19.10.2027 -
Musa Malik Ikorodu City Aktiv 101 / 90 40% 1 19.10.2027 -
Gilberto Mora Atlético Madrid Aktiv 136 / 135 40% 2 16.10.2027 -
Lucas Camejo River Plate Aktiv 88 / 101 40% 3 13.10.2027 -
Ramiro Jara Racing Aktiv 79 / 86 40% 2 11.10.2027 -
Juan Camilo Córdoba Deportivo Pereira Aktiv 81 / 83 40% 2 11.10.2027 -
Santiago López Independiente Aktiv 127 / 129 40% 3 10.10.2027 -
Giovanni Baroni Talleres Aktiv 107 / 134 40% 2 09.10.2027 -
Emiliano Zambrano Gimnasia y Esgrima Aktiv 93 / 103 40% 4 09.10.2027 -
Santino Carrizo Chacarita Juniors Aktiv 76 / 84 40% 1 09.10.2027 -
Facundo Martínez Montevideo City Torque Aktiv 79 / 104 40% 2 07.10.2027 -
Joseph Arumala Ikorodu City Aktiv 94 / 80 40% 1 07.10.2027 -
Tyson Pearce St. Louis CITY SC Aktiv 98 / 91 40% 2 05.10.2027 -
Mauro Carrizo Atlético Tucumán Aktiv 104 / 106 40% 1 05.10.2027 -
Tobias Moi Bodo/Glimt Aktiv 114 / 108 40% 1 05.10.2027 -
Chibueze Oputa Rangers International Aktiv 84 / 92 40% 1 04.10.2027 -
Diego Vargas San Marcos de Arica Aktiv 82 / 99 40% 1 04.10.2027 -
Gift Udoh Ikorodu City Aktiv 90 / 103 40% 1 04.10.2027 -
Aiden Hezarkhani Real Salt Lake Aktiv 96 / 102 40% 2 02.10.2027 -
Demian Rea Banfield Aktiv 101 / 115 40% 1 01.10.2027 -
Mikhail Alexandrov Dinamo Brest Aktiv 89 / 91 40% 1 01.10.2027 -
Samuel Posada Leones Aktiv 85 / 87 40% 1 27.09.2027 -
Jofrank Istifanus Nasarawa United Aktiv 86 / 87 40% 3 23.09.2027 -
Emmanuel Chacón Zulia Aktiv 82 / 94 40% 1 23.09.2027 -
Joaquín Muñoz O'Higgins Aktiv 79 / 87 40% 1 21.09.2027 -
Juan Rodríguez Wanderers Aktiv 96 / 95 40% 1 20.09.2027 -
Josh King Chelsea Aktiv 150 / 142 40% 1 15.09.2027 -
Noah Streit CF Montreal Aktiv 112 / 125 40% 1 14.09.2027 -
Jhon Renteria Sarmiento Aktiv 103 / 129 40% 1 13.09.2027 -
Dilan Godoy Vélez Aktiv 101 / 127 40% 2 12.09.2027 -
Matías Gómez Granada Aktiv 112 / 127 40% 4 28.06.2027 -
Jan Bürger Gillingham Aktiv 114 / 117 40% 2 28.06.2027 -
Percy Jali Free State Stars Aktiv 92 / 107 40% 4 02.06.2027 -
Joseph Nuhu Hasaacas Aktiv 90 / 81 40% 2 02.06.2027 -
Dion Beljo Standard Liege Verhandlung 131 / 132 66% 1 01.06.2027 Befürworten
Sascha Britschgi Padova Aktiv 115 / 121 40% 3 30.05.2027 -
Joel McGregor Swindon Town Aktiv 92 / 95 40% 3 30.05.2027 -
Davide Bartesaghi AC Milan Aktiv 129 / 135 40% 4 30.05.2027 -
Riley Owen Trento Aktiv 103 / 102 40% 5 28.05.2027 -
Finley McAllister Grimsby Town Aktiv 89 / 104 40% 1 28.05.2027 -
Fuzy Taylor Medeama Aktiv 82 / 89 40% 2 26.05.2027 -
Mpho Khethang AS Police Aktiv 80 / 82 40% 4 26.05.2027 -
David Atiemo Liberty Professionals Aktiv 86 / 86 40% 4 25.05.2027 -
Juan Giménez Celta Aktiv 116 / 131 40% 2 25.05.2027 -
Jofre Torrents Ajax Aktiv 121 / 133 40% 4 24.05.2027 -
Christos Mouzakitis Hull City Aktiv 136 / 132 40% 7 24.05.2027 -
Daniel Kelly Oxford United Aktiv 114 / 128 40% 2 24.05.2027 -
Dylan Lawlor Cardiff City Aktiv 118 / 112 40% 3 22.05.2027 -
Olaniyi Saheed Kwara United Aktiv 84 / 87 40% 1 22.05.2027 -
Yussif Saidu Zaragoza Aktiv 121 / 129 40% 2 21.05.2027 -
Johan Manzambi Newcastle United Aktiv 142 / 150 40% 1 17.05.2027 -
Keagan Tau Ajax Cape Town Aktiv 104 / 105 40% 4 15.05.2027 -
Edwin Asamoah Berekum Chelsea Aktiv 75 / 97 40% 3 14.05.2027 -
Christ Inao Oulaï Fiorentina Aktiv 138 / 138 40% 3 13.05.2027 -
Josh Smith Accrington Stanley Aktiv 75 / 83 40% 1 10.05.2027 -
Leandro Martins Benfica Aktiv 92 / 90 40% 2 09.05.2027 -
Felix Afful Liberty Professionals Aktiv 86 / 85 40% 2 08.05.2027 -
Kazunari Kita Real Sociedad Aktiv 91 / 98 40% 3 06.05.2027 -
Martim Cunha Porto Aktiv 98 / 104 40% 2 02.05.2027 -
Tiago Freitas Benfica Aktiv 103 / 108 40% 1 02.05.2027 -
Ernie Weaver AFC Wimbledon Aktiv 103 / 113 40% 1 26.04.2027 -
David Ozoh Derby County Aktiv 113 / 135 40% 1 26.04.2027 -
Hlompho Lorch Ajax Cape Town Aktiv 107 / 113 40% 2 22.04.2027 -
Zane Albarus Cambridge United Aktiv 88 / 96 40% 1 20.04.2027 -
Surprise Manthosi Polokwane City Aktiv 103 / 102 40% 1 20.04.2027 -
Cathal Heffernan Harrogate Town Aktiv 81 / 84 40% 2 19.04.2027 -
Daniel Costa Sporting CP Aktiv 95 / 102 40% 1 18.04.2027 -
Bernardo Lima Porto Aktiv 101 / 107 40% 1 12.04.2027 -
Rivaldo Grobler Free State Stars Aktiv 100 / 118 40% 1 12.04.2027 -
Pietro Reggiori Pro Patria Aktiv 88 / 100 40% 1 11.04.2027 -
Ronwen Phiri Platinum Stars Aktiv 99 / 97 40% 1 10.04.2027 -
Gopolang Taunyane CR Belouizdad Aktiv 103 / 93 40% 1 09.04.2027 -
Tyler Fredricson Oldham Athletic Aktiv 102 / 110 40% 1 18.01.2027 -
Mbekezeli Mbokazi Chicago Fire Aktiv 121 / 119 40% 2 01.01.2027 -
Amar Memić Casa Pia Verhandlung 127 / 128 62% 1 01.01.2027 Befürworten
Andreas Trimmel Red Bull Salzburg Aktiv 131 / 131 60% 1 01.01.2027 Befürworten
Jefry Zapata Danubio Verhandlung 118 / 118 67% 1 01.01.2027 Befürworten
Themba Ngcobo SuperSport United Aktiv 118 / 111 40% 5 31.12.2026 -
Morgan Whittaker Middlesbrough Aktiv 138 / 128 40% 2 31.12.2026 -
Robert Mizo Ashanti Gold Aktiv 100 / 116 40% 1 31.12.2026 -
Sorba Thomas Stoke City Aktiv 138 / 140 40% 2 30.12.2026 -
Romano Schmid Frosinone Aktiv 151 / 143 40% 1 30.12.2026 -
Giorgi Chakvetadze Watford Aktiv 125 / 122 40% 1 30.12.2026 -
Etiosa Ighodaro Kaizer Chiefs Aktiv 108 / 123 40% 2 27.12.2026 -
Mohamed-Ali Cho Hull City Aktiv 124 / 126 40% 2 26.12.2026 -
Yousef Salech Cardiff City Aktiv 120 / 118 40% 2 25.12.2026 -
Richard Koné Queens Park Rangers Aktiv 124 / 113 40% 2 25.12.2026 -
Georginio Rutter Brighton Aktiv 149 / 147 40% 4 24.12.2026 -
Matt O'Riley Brighton Aktiv 146 / 136 40% 3 24.12.2026 -
Mathias Jørgensen Blackburn Rovers Aktiv 119 / 125 40% 1 24.12.2026 -
Ali Ahmed Norwich City Aktiv 120 / 119 40% 1 23.12.2026 -
Will Lankshear Middlesbrough Aktiv 126 / 134 40% 2 21.12.2026 -
Bongani Mothiba SuperSport United Aktiv 84 / 74 40% 3 21.12.2026 -
Derensili Sanches Fernandes Huddersfield Town Aktiv 126 / 123 40% 4 21.12.2026 -
Niall Ennis Blackpool Aktiv 114 / 116 40% 1 21.12.2026 -
Tyreece Simpson Maritzburg United Aktiv 75 / 88 40% 2 19.12.2026 -
Brayan León Mamelodi Sundowns Aktiv 125 / 120 40% 3 19.12.2026 -
Tadeo Allende Inter Miami CF Aktiv 119 / 116 40% 4 16.12.2026 Beobachten
Mandla Mahlangu Ajax Cape Town Aktiv 107 / 105 40% 3 16.12.2026 -
Bamba Dieng Crvena Zvezda Aktiv 124 / 130 40% 1 16.12.2026 -
Bryan Ramírez FC Cincinnati Aktiv 124 / 133 40% 1 15.12.2026 -
Williams Manyama SuperSport United Aktiv 113 / 113 40% 1 15.12.2026 -
Mohammed Yahaya Great Olympics Aktiv 75 / 98 40% 1 15.12.2026 -
Kévin Denkey FC Cincinnati Aktiv 133 / 121 40% 4 13.12.2026 -
Razvan Balasa Crvena Zvezda Aktiv 144 / 142 40% 3 13.12.2026 -
Ruben van Bommel Ferencvaros Aktiv 136 / 140 40% 2 13.12.2026 -
Tom Fellows Southampton Aktiv 123 / 124 40% 3 11.12.2026 -
Kelvin Yeboah Minnesota United FC Aktiv 126 / 130 40% 4 11.12.2026 -
Carlos Vicente Birmingham Aktiv 140 / 133 40% 2 11.12.2026 -
Marezi Portsmouth Aktiv 115 / 114 40% 1 11.12.2026 -
Nathan Ordaz Metalist Aktiv 102 / 121 40% 1 11.12.2026 -
Kwadwo Baah Watford Aktiv 121 / 126 40% 1 10.12.2026 -
Shea Charles Southampton Aktiv 139 / 124 40% 1 09.12.2026 -
Kenan Dervišagić Floriana Aktiv 106 / 91 40% 2 07.12.2026 -
Bénie Traoré New York City Aktiv 124 / 128 40% 3 03.12.2026 -
Dean Erasmus Platinum Stars Aktiv 101 / 79 40% 1 03.12.2026 -
Theo Corbeanu Toronto FC Aktiv 129 / 115 40% 2 02.12.2026 -
Armindo Sieb Los Angeles Football Club Aktiv 123 / 131 40% 2 02.12.2026 -
Tshepang Moremi Orlando Pirates Aktiv 115 / 103 40% 2 02.12.2026 -
Sibusiso Tshabalala Polokwane City Aktiv 83 / 94 40% 1 28.11.2026 -
Rafael Navarro St. Louis CITY SC Aktiv 131 / 131 40% 8 27.11.2026 -
Alexander Aravena Portland Timbers Aktiv 129 / 133 40% 3 27.11.2026 -
Lorent Tolaj Plymouth Argyle Aktiv 114 / 119 40% 1 26.11.2026 -
Joshua Zirkzee Manchester United Aktiv 138 / 134 40% 1 25.11.2026 -
Wessam Abou Ali Columbus Crew Aktiv 124 / 135 40% 1 25.11.2026 -
Tomás Chancalay Minnesota United FC Aktiv 121 / 133 40% 3 24.11.2026 -
Jack Rudoni Coventry City Aktiv 130 / 135 40% 1 24.11.2026 -
Tyrese Campbell Sheffield United Aktiv 120 / 118 40% 3 23.11.2026 -
Ilyas Ansah Hull City Aktiv 135 / 122 40% 1 22.11.2026 -
Diego Luna Real Salt Lake Aktiv 130 / 131 40% 2 21.11.2026 -
Josh Sargent Toronto FC Aktiv 136 / 131 40% 1 17.11.2026 -
Bongani Modiba Black Aces Aktiv 130 / 137 40% 1 16.11.2026 -
Álvaro Rodríguez Bournemouth Aktiv 134 / 134 40% 1 16.11.2026 -
Conrad Wallem Austria Wien Aktiv 135 / 135 40% 1 13.11.2026 -
Welington Southampton Aktiv 123 / 128 40% 1 13.11.2026 -
Santiago Rodríguez Columbus Crew Aktiv 120 / 119 40% 1 13.11.2026 -
Agustín Anello Philadelphia Union Aktiv 122 / 133 40% 4 11.11.2026 -
Dejan Joveljić Seattle Sounders Aktiv 134 / 119 40% 4 11.11.2026 -
Othmane Maamma Watford Aktiv 132 / 122 40% 1 11.11.2026 -
Juan Manuel Sanabria Real Salt Lake Aktiv 128 / 130 40% 2 09.11.2026 -
Luis Vázquez Birmingham Aktiv 127 / 128 40% 1 07.11.2026 -
Evidence Makgopa Orlando Pirates Aktiv 113 / 120 40% 1 03.11.2026 -
Tommy Conway Middlesbrough Aktiv 122 / 137 40% 1 03.11.2026 -
Cheikh Sabaly Vancouver Whitecaps Aktiv 127 / 119 40% 3 02.11.2026 -
Victor Olatunji Real Salt Lake Aktiv 116 / 118 40% 1 02.11.2026 -
Martín Ojeda Orlando City Aktiv 142 / 129 40% 4 01.11.2026 -
Joe Gelhardt Hull City Aktiv 126 / 129 40% 2 01.11.2026 -
Antonio Galeano Remo Stars Aktiv 112 / 139 40% 2 01.11.2026 -
Yeangel Montero Naxxar Lions Aktiv 103 / 106 40% 1 31.10.2026 -
Jeong Sang-Bin St. Louis CITY SC Aktiv 112 / 121 40% 2 30.10.2026 -
Louis Munteanu DC United Aktiv 119 / 118 40% 1 30.10.2026 -
Indiana Vassilev Philadelphia Union Aktiv 118 / 122 40% 3 26.10.2026 -
Scott Twine Bristol City Aktiv 115 / 115 40% 1 26.10.2026 -
Facundo Mura Inter Miami CF Aktiv 132 / 131 40% 1 26.10.2026 -
Adnan Courtois KV Oostende Aktiv 141 / 136 40% 3 24.10.2026 -
Leonardo Campana New England Revolution Aktiv 128 / 125 40% 2 23.10.2026 -
Andrés Herrera Columbus Crew Aktiv 129 / 114 40% 1 21.10.2026 -
Quinn Sullivan Philadelphia Union Aktiv 121 / 127 40% 1 21.10.2026 -
Archie Goodwin Charlotte Football Club Aktiv 108 / 114 40% 2 17.10.2026 -
Dávid Strelec Middlesbrough Aktiv 144 / 139 40% 1 16.10.2026 -
Kevin Kelsy Portland Timbers Aktiv 114 / 124 40% 2 15.10.2026 -
Cameron Archer Southampton Aktiv 120 / 131 40% 1 12.10.2026 -
Yannick Bright Inter Miami CF Aktiv 121 / 127 40% 1 09.10.2026 -
Joseph Rosales Austin FC Aktiv 116 / 108 40% 1 09.10.2026 -
Riqui Puig LA Galaxy Aktiv 136 / 141 40% 1 09.10.2026 -
Ayoub Jabbari FC Cincinnati Aktiv 115 / 114 40% 1 08.10.2026 -
Alhassan Yusuf New England Revolution Aktiv 129 / 123 40% 1 15.09.2026 -
Jahkeele Marshall-Rutty New York Red Bulls Aktiv 114 / 121 40% 1 15.09.2026 -
Gabriel Pirani San Diego Football Club Aktiv 139 / 122 40% 1 14.09.2026 -
Rui Modesto Vancouver Whitecaps Aktiv 130 / 123 40% 1 14.09.2026 -
Lucas Sanabria LA Galaxy Aktiv 124 / 135 40% 1 12.09.2026 -
Patrick Yazbek Nashville SC Aktiv 128 / 116 40% 1 08.09.2026 -
Iván Angulo Orlando City Aktiv 122 / 125 40% 1 08.09.2026 -
Marco Pašalić Orlando City Aktiv 135 / 123 40% 1 08.09.2026 -
Pablo Ruiz Real Salt Lake Aktiv 120 / 120 40% 1 07.09.2026 -
Edvard Tagseth Nashville SC Aktiv 109 / 111 40% 1 07.09.2026 -
Mamadou Jobe Cambridge United Aktiv 93 / 96 65% 1 10.08.2026 Befürworten
Jack Hinshelwood Brighton Aktiv 137 / 154 40% 1 03.08.2026 -
Brooklyn Raines New England Revolution Aktiv 101 / 108 40% 1 03.08.2026 -
Jack Neeley Charlotte Football Club Aktiv 84 / 106 40% 1 01.08.2026 -